Terminal Aerodrome Forecast
Issued by NWS

Home | Current Version | Previous Version | Text Only | Print | Product List | Glossary On
Versions: 1 2 3 4 5 6 7 8 9 10 11 12 13 14 15 16
000
FTUS46 KSTO 242320
TAFSCK
TAF
KSCK 242320Z 2500/2524 30006KT P6SM SKC
     FM250800 VRB03KT 3SM BR BCFG SCT002
     FM251000 VRB02KT 1SM BR BCFG BKN002
     FM251200 VRB01KT 1/4SM FG VV001
     FM251800 VRB04KT 3SM BR BKN005
     FM252000 30007KT P6SM BKN250=

USA.gov is the U.S. government's official web portal to all federal, state and local government web resources and services.